createdAt,value
2022-07-29T00:00:34.948Z,0.00
2022-07-29T00:01:35.034Z,0.00
2022-07-29T00:02:34.985Z,0.00
2022-07-29T00:03:34.744Z,0.00
2022-07-29T00:04:34.727Z,0.00
2022-07-29T00:05:34.611Z,0.00
2022-07-29T00:06:34.686Z,0.00
2022-07-29T00:07:34.554Z,0.00
2022-07-29T00:08:34.705Z,0.00
2022-07-29T00:09:42.997Z,0.00
2022-07-29T00:10:34.414Z,0.00
2022-07-29T00:11:34.513Z,0.00
2022-07-29T00:12:34.343Z,0.00
2022-07-29T00:13:34.323Z,0.00
2022-07-29T00:14:34.256Z,0.00
2022-07-29T00:15:34.398Z,0.00
2022-07-29T00:16:34.351Z,0.00
2022-07-29T00:17:34.349Z,0.00
2022-07-29T00:18:34.096Z,0.00
2022-07-29T00:19:34.182Z,0.00
2022-07-29T00:20:34.008Z,0.00
2022-07-29T00:21:34.038Z,0.00
2022-07-29T00:22:33.979Z,0.00
2022-07-29T00:23:36.694Z,0.00
2022-07-29T00:24:34.005Z,0.00
2022-07-29T00:25:33.813Z,0.00
2022-07-29T00:26:33.773Z,0.00
2022-07-29T00:27:33.732Z,0.00
2022-07-29T00:28:33.873Z,0.00
2022-07-29T00:29:34.834Z,0.00
2022-07-29T00:30:33.625Z,0.00
2022-07-29T00:31:33.667Z,0.00
2022-07-29T00:32:33.533Z,0.00
2022-07-29T00:33:33.647Z,0.00
2022-07-29T00:34:33.451Z,0.00
2022-07-29T00:35:33.462Z,0.00
2022-07-29T00:36:33.528Z,0.00
2022-07-29T00:37:33.332Z,0.00
2022-07-29T00:38:33.291Z,0.00
2022-07-29T00:39:33.336Z,0.00
2022-07-29T00:40:33.206Z,0.00
2022-07-29T00:41:33.307Z,0.00
2022-07-29T00:42:33.174Z,0.00
2022-07-29T00:43:33.093Z,0.00
2022-07-29T00:44:33.118Z,0.00
2022-07-29T00:45:33.035Z,0.00
2022-07-29T00:46:33.173Z,0.00
2022-07-29T00:47:32.939Z,0.00
2022-07-29T00:48:34.732Z,0.00
2022-07-29T00:49:32.849Z,0.00
2022-07-29T00:50:32.969Z,0.00
2022-07-29T00:51:32.772Z,0.00
2022-07-29T00:52:32.783Z,0.00
2022-07-29T00:53:32.726Z,0.00
2022-07-29T00:54:32.854Z,0.00
2022-07-29T00:55:32.804Z,0.00
2022-07-29T00:56:32.603Z,0.00
2022-07-29T00:57:32.617Z,0.00
2022-07-29T00:58:32.518Z,0.00
2022-07-29T00:59:34.728Z,0.00
2022-07-29T01:00:32.508Z,0.00
2022-07-29T01:01:32.592Z,0.00
2022-07-29T01:02:32.384Z,0.00
2022-07-29T01:03:32.451Z,0.00
2022-07-29T01:04:32.261Z,0.00
2022-07-29T01:05:48.501Z,0.00
2022-07-29T01:06:32.187Z,0.00
2022-07-29T01:07:32.299Z,0.00
2022-07-29T01:08:32.091Z,0.00
2022-07-29T01:09:42.159Z,0.00
2022-07-29T01:10:32.088Z,0.00
2022-07-29T01:11:32.255Z,0.00
2022-07-29T01:12:32.108Z,0.00
2022-07-29T01:13:31.908Z,0.00
2022-07-29T01:14:31.919Z,0.00
2022-07-29T01:15:31.809Z,0.00
2022-07-29T01:16:31.867Z,0.00
2022-07-29T01:17:31.937Z,0.00
2022-07-29T01:18:31.689Z,0.00
2022-07-29T01:19:31.748Z,0.00
2022-07-29T01:20:32.065Z,0.00
2022-07-29T01:21:31.565Z,0.00
2022-07-29T01:22:31.541Z,0.00
2022-07-29T01:23:31.605Z,0.00
2022-07-29T01:24:31.445Z,0.00
2022-07-29T01:25:31.601Z,0.00
2022-07-29T01:26:31.383Z,0.00
2022-07-29T01:27:31.321Z,0.00
2022-07-29T01:28:31.813Z,0.00
2022-07-29T01:29:36.255Z,0.00
2022-07-29T01:30:31.200Z,0.00
2022-07-29T01:31:31.246Z,0.00
2022-07-29T01:32:31.272Z,0.00
2022-07-29T01:33:31.082Z,0.00
2022-07-29T01:34:31.244Z,0.00
2022-07-29T01:35:31.019Z,0.00
2022-07-29T01:36:31.051Z,0.00
2022-07-29T01:37:31.005Z,0.00
2022-07-29T01:38:31.069Z,0.00
2022-07-29T01:39:30.852Z,0.00
2022-07-29T01:40:31.078Z,0.00
2022-07-29T01:41:30.778Z,0.00
2022-07-29T01:42:30.893Z,0.00
2022-07-29T01:43:30.679Z,0.00
2022-07-29T01:44:30.752Z,0.00
2022-07-29T01:45:30.662Z,0.00
2022-07-29T01:46:30.797Z,0.00
2022-07-29T01:47:30.519Z,0.00
2022-07-29T01:48:30.522Z,0.00
2022-07-29T01:49:30.541Z,0.00
2022-07-29T01:50:30.541Z,0.00
2022-07-29T01:51:30.362Z,0.00
2022-07-29T01:52:30.754Z,0.00
2022-07-29T01:53:30.284Z,0.00
2022-07-29T01:54:30.360Z,0.00
2022-07-29T01:55:30.245Z,0.00
2022-07-29T01:56:30.373Z,0.00
2022-07-29T01:57:30.130Z,0.00
2022-07-29T01:58:30.184Z,0.00
2022-07-29T01:59:30.049Z,0.00
2022-07-29T02:00:30.200Z,0.00
2022-07-29T02:01:30.085Z,0.00
2022-07-29T02:02:30.008Z,0.00
2022-07-29T02:03:29.885Z,0.00
2022-07-29T02:04:30.423Z,0.00
2022-07-29T02:05:29.846Z,0.00
2022-07-29T02:06:29.837Z,0.00
2022-07-29T02:07:29.739Z,0.00
2022-07-29T02:08:29.847Z,0.00
2022-07-29T02:09:29.644Z,0.00
2022-07-29T02:10:29.672Z,0.00
2022-07-29T02:11:29.556Z,0.00
2022-07-29T02:12:29.674Z,0.00
2022-07-29T02:13:30.816Z,0.00
2022-07-29T02:14:29.690Z,0.00
2022-07-29T02:15:29.393Z,0.00
2022-07-29T02:16:29.451Z,0.00
2022-07-29T02:17:29.506Z,0.00
2022-07-29T02:18:29.277Z,0.00
2022-07-29T02:19:29.516Z,0.00
2022-07-29T02:20:29.241Z,0.00
2022-07-29T02:21:29.157Z,0.00
2022-07-29T02:22:29.179Z,0.00
2022-07-29T02:23:29.242Z,0.00
2022-07-29T02:24:29.103Z,0.00
2022-07-29T02:25:38.036Z,0.00
2022-07-29T02:26:28.954Z,0.00
2022-07-29T02:27:28.958Z,0.00
2022-07-29T02:28:28.970Z,0.00
2022-07-29T02:29:28.837Z,0.00
2022-07-29T02:30:28.988Z,0.00
2022-07-29T02:31:28.862Z,0.00
2022-07-29T02:32:28.842Z,0.00
2022-07-29T02:33:28.680Z,0.00
2022-07-29T02:34:28.810Z,0.00
2022-07-29T02:35:28.590Z,0.00
2022-07-29T02:36:28.619Z,0.00
2022-07-29T02:37:28.527Z,0.00
2022-07-29T02:38:28.474Z,0.00
2022-07-29T02:39:28.432Z,0.00
2022-07-29T02:40:28.440Z,0.00
2022-07-29T02:41:28.350Z,0.00
2022-07-29T02:42:28.454Z,0.00
2022-07-29T02:43:28.509Z,0.00
2022-07-29T02:44:34.121Z,0.00
2022-07-29T02:45:28.184Z,0.00
2022-07-29T02:46:29.598Z,0.00
2022-07-29T02:47:28.110Z,0.00
2022-07-29T02:48:28.296Z,0.00
2022-07-29T02:49:28.157Z,0.00
2022-07-29T02:50:28.104Z,0.00
2022-07-29T02:51:42.613Z,0.00
2022-07-29T02:52:28.168Z,0.00
2022-07-29T02:53:27.924Z,0.00
2022-07-29T02:54:27.826Z,0.00
2022-07-29T02:55:27.783Z,0.00
2022-07-29T02:56:27.946Z,0.00
2022-07-29T02:57:27.720Z,0.00
2022-07-29T02:58:27.817Z,0.00
2022-07-29T02:59:27.626Z,0.00
2022-07-29T03:00:27.619Z,0.00
2022-07-29T03:01:27.572Z,0.00
2022-07-29T03:02:27.987Z,0.00
2022-07-29T03:03:27.462Z,0.00
2022-07-29T03:04:27.622Z,0.00
2022-07-29T03:05:27.374Z,0.00
2022-07-29T03:06:31.379Z,0.00
2022-07-29T03:07:27.316Z,0.00
2022-07-29T03:08:27.620Z,0.00
2022-07-29T03:09:27.219Z,0.00
2022-07-29T03:10:27.448Z,0.00
2022-07-29T03:11:42.452Z,0.00
2022-07-29T03:12:27.093Z,0.00
2022-07-29T03:13:27.247Z,0.00
2022-07-29T03:14:27.025Z,0.00
2022-07-29T03:15:27.086Z,0.00
2022-07-29T03:16:26.987Z,0.00
2022-07-29T03:17:26.893Z,0.00
2022-07-29T03:18:27.287Z,0.00
2022-07-29T03:19:26.816Z,0.00
2022-07-29T03:20:26.906Z,0.00
2022-07-29T03:21:26.750Z,0.00
2022-07-29T03:22:26.708Z,0.00
2022-07-29T03:23:26.663Z,0.00
2022-07-29T03:24:27.305Z,0.00
2022-07-29T03:25:26.593Z,0.00
2022-07-29T03:26:27.767Z,0.00
2022-07-29T03:27:26.503Z,0.00
2022-07-29T03:28:27.039Z,0.00
2022-07-29T03:29:33.771Z,0.00
2022-07-29T03:30:26.366Z,0.00
2022-07-29T03:31:26.636Z,0.00
2022-07-29T03:32:26.289Z,0.00
2022-07-29T03:33:26.249Z,0.00
2022-07-29T03:34:26.216Z,0.00
2022-07-29T03:35:26.420Z,0.00
2022-07-29T03:36:26.128Z,0.00
2022-07-29T03:37:26.395Z,0.00
2022-07-29T03:38:26.042Z,0.00
2022-07-29T03:39:26.006Z,0.00
2022-07-29T03:40:26.220Z,0.00
2022-07-29T03:41:25.921Z,0.00
2022-07-29T03:42:28.006Z,0.00
2022-07-29T03:43:25.844Z,0.00
2022-07-29T03:44:25.799Z,0.00
2022-07-29T03:45:25.847Z,0.00
2022-07-29T03:46:25.932Z,0.00
2022-07-29T03:47:43.593Z,0.00
2022-07-29T03:48:25.804Z,0.00
2022-07-29T03:49:25.847Z,0.00
2022-07-29T03:50:25.559Z,0.00
2022-07-29T03:51:33.840Z,0.00
2022-07-29T03:52:25.477Z,0.00
2022-07-29T03:53:25.589Z,0.00
2022-07-29T03:54:25.411Z,5.63
2022-07-29T03:55:25.353Z,5.63
2022-07-29T03:56:25.312Z,5.63
2022-07-29T03:57:25.419Z,5.63
2022-07-29T03:58:25.467Z,5.63
2022-07-29T03:59:25.487Z,5.63
2022-07-29T04:00:25.154Z,11.25
2022-07-29T04:01:25.163Z,11.25
2022-07-29T04:02:30.201Z,11.25
2022-07-29T04:03:25.090Z,11.25
2022-07-29T04:04:25.267Z,16.88
2022-07-29T04:05:24.949Z,16.88
2022-07-29T04:06:24.913Z,16.88
2022-07-29T04:07:24.877Z,22.50
2022-07-29T04:08:25.147Z,22.50
2022-07-29T04:09:24.795Z,22.50
2022-07-29T04:10:26.895Z,22.50
2022-07-29T04:11:24.707Z,28.13
2022-07-29T04:12:24.670Z,28.13
2022-07-29T04:13:24.712Z,28.13
2022-07-29T04:14:24.591Z,33.75
2022-07-29T04:15:24.622Z,39.38
2022-07-29T04:16:24.635Z,39.38
2022-07-29T04:17:24.466Z,45.00
2022-07-29T04:18:24.643Z,45.00
2022-07-29T04:19:24.387Z,50.63
2022-07-29T04:20:24.457Z,50.63
2022-07-29T04:21:24.320Z,56.25
2022-07-29T04:22:24.689Z,56.25
2022-07-29T04:23:24.222Z,56.25
2022-07-29T04:24:24.285Z,56.25
2022-07-29T04:25:24.144Z,61.88
2022-07-29T04:26:24.304Z,61.88
2022-07-29T04:27:24.064Z,67.50
2022-07-29T04:28:24.046Z,67.50
2022-07-29T04:29:23.984Z,73.13
2022-07-29T04:30:24.005Z,78.75
2022-07-29T04:31:25.878Z,84.38
2022-07-29T04:32:23.982Z,95.63
2022-07-29T04:33:25.055Z,101.25
2022-07-29T04:34:28.190Z,112.50
2022-07-29T04:35:23.737Z,112.50
2022-07-29T04:36:29.492Z,118.13
2022-07-29T04:37:23.658Z,123.75
2022-07-29T04:38:23.735Z,129.38
2022-07-29T04:39:23.649Z,135.00
2022-07-29T04:40:24.090Z,135.00
2022-07-29T04:41:23.527Z,140.63
2022-07-29T04:42:27.465Z,151.88
2022-07-29T04:43:23.544Z,146.25
2022-07-29T04:44:28.514Z,151.88
2022-07-29T04:45:23.407Z,151.88
2022-07-29T04:46:23.592Z,157.50
2022-07-29T04:47:23.263Z,163.13
2022-07-29T04:48:28.491Z,168.75
2022-07-29T04:49:23.212Z,174.38
2022-07-29T04:50:23.142Z,180.00
2022-07-29T04:51:23.192Z,185.63
2022-07-29T04:52:23.205Z,185.63
2022-07-29T04:53:23.018Z,185.63
2022-07-29T04:54:23.026Z,180.00
2022-07-29T04:55:22.940Z,174.38
2022-07-29T04:56:33.712Z,174.38
2022-07-29T04:57:22.855Z,180.00
2022-07-29T04:58:22.813Z,185.63
2022-07-29T04:59:22.773Z,196.88
2022-07-29T05:00:22.736Z,202.50
2022-07-29T05:01:22.767Z,208.13
2022-07-29T05:02:22.793Z,208.13
2022-07-29T05:03:22.618Z,213.75
2022-07-29T05:04:22.577Z,213.75
2022-07-29T05:05:22.570Z,219.38
2022-07-29T05:06:22.497Z,219.38
2022-07-29T05:07:22.456Z,225.00
2022-07-29T05:08:22.418Z,230.63
2022-07-29T05:09:22.382Z,236.25
2022-07-29T05:10:22.340Z,241.88
2022-07-29T05:11:24.973Z,247.50
2022-07-29T05:12:22.259Z,253.13
2022-07-29T05:13:22.217Z,253.13
2022-07-29T05:14:22.179Z,253.13
2022-07-29T05:15:22.141Z,247.50
2022-07-29T05:16:22.143Z,230.63
2022-07-29T05:17:22.074Z,213.75
2022-07-29T05:18:22.016Z,196.88
2022-07-29T05:19:21.972Z,185.63
2022-07-29T05:20:21.938Z,174.38
2022-07-29T05:21:21.897Z,174.38
2022-07-29T05:22:21.859Z,185.63
2022-07-29T05:23:21.838Z,196.88
2022-07-29T05:24:21.779Z,213.75
2022-07-29T05:25:21.740Z,230.63
2022-07-29T05:26:21.701Z,241.88
2022-07-29T05:27:21.657Z,247.50
2022-07-29T05:28:21.620Z,258.75
2022-07-29T05:29:43.175Z,264.38
2022-07-29T05:30:21.544Z,270.00
2022-07-29T05:31:21.548Z,270.00
2022-07-29T05:32:21.456Z,270.00
2022-07-29T05:33:35.865Z,275.63
2022-07-29T05:34:21.383Z,275.63
2022-07-29T05:35:21.362Z,281.25
2022-07-29T05:36:21.298Z,281.25
2022-07-29T05:37:21.261Z,281.25
2022-07-29T05:38:21.224Z,275.63
2022-07-29T05:39:21.188Z,270.00
2022-07-29T05:40:21.146Z,275.63
2022-07-29T05:41:21.116Z,281.25
2022-07-29T05:42:21.063Z,298.13
2022-07-29T05:43:21.027Z,309.38
2022-07-29T05:44:20.986Z,315.00
2022-07-29T05:45:20.950Z,315.00
2022-07-29T05:46:20.991Z,315.00
2022-07-29T05:47:20.865Z,320.63
2022-07-29T05:48:20.828Z,326.25
2022-07-29T05:49:23.090Z,331.88
2022-07-29T05:50:20.748Z,343.13
2022-07-29T05:51:20.709Z,354.38
2022-07-29T05:52:20.692Z,354.38
2022-07-29T05:53:21.063Z,337.50
2022-07-29T05:54:20.593Z,298.13
2022-07-29T05:55:20.551Z,247.50
2022-07-29T05:56:20.517Z,213.75
2022-07-29T05:57:20.550Z,185.63
2022-07-29T05:58:20.468Z,174.38
2022-07-29T05:59:20.398Z,174.38
2022-07-29T06:03:47.907Z,196.88
2022-07-29T06:04:47.776Z,202.50
2022-07-29T06:05:47.643Z,213.75
2022-07-29T06:06:47.605Z,213.75
2022-07-29T06:07:50.736Z,213.75
2022-07-29T06:08:47.521Z,208.13
2022-07-29T06:09:47.495Z,196.88
2022-07-29T06:10:47.440Z,180.00
2022-07-29T06:11:47.399Z,174.38
2022-07-29T06:12:47.358Z,163.13
2022-07-29T06:13:47.333Z,157.50
2022-07-29T06:14:50.863Z,146.25
2022-07-29T06:15:47.299Z,135.00
2022-07-29T06:16:47.290Z,129.38
2022-07-29T06:18:00.578Z,118.13
2022-07-29T06:18:47.116Z,106.88
2022-07-29T06:19:47.077Z,101.25
2022-07-29T06:20:47.052Z,106.88
2022-07-29T06:21:46.997Z,106.88
2022-07-29T06:22:46.964Z,112.50
2022-07-29T06:23:46.933Z,118.13
2022-07-29T06:24:46.877Z,112.50
2022-07-29T06:25:46.864Z,106.88
2022-07-29T06:26:46.822Z,95.63
2022-07-29T06:27:46.759Z,90.00
2022-07-29T06:28:46.718Z,90.00
2022-07-29T06:29:46.682Z,90.00
2022-07-29T06:30:46.731Z,95.63
2022-07-29T06:31:46.596Z,106.88
2022-07-29T06:32:46.585Z,112.50
2022-07-29T06:33:46.526Z,118.13
2022-07-29T06:34:46.478Z,123.75
2022-07-29T06:35:53.634Z,135.00
2022-07-29T06:36:46.419Z,135.00
2022-07-29T06:37:46.358Z,146.25
2022-07-29T06:38:51.225Z,151.88
2022-07-29T06:39:46.277Z,157.50
2022-07-29T06:40:46.244Z,163.13
2022-07-29T06:41:46.198Z,168.75
2022-07-29T06:42:46.155Z,174.38
2022-07-29T06:43:51.959Z,180.00
2022-07-29T06:44:46.253Z,185.63
2022-07-29T06:45:46.109Z,191.25
2022-07-29T06:46:46.002Z,202.50
2022-07-29T06:47:45.958Z,208.13
2022-07-29T06:48:45.979Z,213.75
2022-07-29T06:49:45.874Z,225.00
2022-07-29T06:50:45.848Z,230.63
2022-07-29T06:51:45.947Z,247.50
2022-07-29T06:52:45.753Z,264.38
2022-07-29T06:53:59.794Z,286.88
2022-07-29T06:54:45.673Z,320.63
2022-07-29T06:55:45.636Z,365.63
2022-07-29T06:56:45.596Z,410.63
2022-07-29T06:57:45.567Z,461.25
2022-07-29T06:58:45.519Z,523.13
2022-07-29T06:59:45.480Z,573.75
2022-07-29T07:00:45.435Z,613.13
2022-07-29T07:01:45.488Z,652.50
2022-07-29T07:02:45.441Z,691.88
2022-07-29T07:03:45.330Z,697.50
2022-07-29T07:04:45.275Z,691.88
2022-07-29T07:05:45.349Z,675.00
2022-07-29T07:06:45.202Z,618.75
2022-07-29T07:07:45.165Z,534.38
2022-07-29T07:08:45.143Z,455.63
2022-07-29T07:09:45.081Z,416.25
2022-07-29T07:10:45.047Z,399.38
2022-07-29T07:11:45.002Z,393.75
2022-07-29T07:12:44.968Z,382.50
2022-07-29T07:13:44.924Z,360.00
2022-07-29T07:14:44.911Z,320.63
2022-07-29T07:15:44.846Z,286.88
2022-07-29T07:16:44.894Z,264.38
2022-07-29T07:17:44.769Z,258.75
2022-07-29T07:18:44.739Z,258.75
2022-07-29T07:19:44.687Z,253.13
2022-07-29T07:20:44.677Z,253.13
2022-07-29T07:21:44.612Z,253.13
2022-07-29T07:22:44.578Z,247.50
2022-07-29T07:23:44.529Z,236.25
2022-07-29T07:24:44.491Z,225.00
2022-07-29T07:25:44.454Z,219.38
2022-07-29T07:26:44.429Z,208.13
2022-07-29T07:27:44.373Z,208.13
2022-07-29T07:28:44.333Z,213.75
2022-07-29T07:29:44.371Z,225.00
2022-07-29T07:30:44.254Z,247.50
2022-07-29T07:31:44.252Z,264.38
2022-07-29T07:32:44.191Z,281.25
2022-07-29T07:33:44.138Z,286.88
2022-07-29T07:34:44.093Z,281.25
2022-07-29T07:35:44.055Z,270.00
2022-07-29T07:36:44.015Z,253.13
2022-07-29T07:37:43.976Z,236.25
2022-07-29T07:38:43.946Z,225.00
2022-07-29T07:39:43.897Z,219.38
2022-07-29T07:40:43.858Z,225.00
2022-07-29T07:41:43.815Z,230.63
2022-07-29T07:42:43.776Z,247.50
2022-07-29T07:43:43.745Z,270.00
2022-07-29T07:45:11.012Z,281.25
2022-07-29T07:45:43.676Z,281.25
2022-07-29T07:46:43.616Z,286.88
2022-07-29T07:47:43.582Z,309.38
2022-07-29T07:48:43.631Z,337.50
2022-07-29T07:49:43.493Z,382.50
2022-07-29T07:50:43.485Z,438.75
2022-07-29T07:51:43.416Z,489.38
2022-07-29T07:52:43.377Z,534.38
2022-07-29T07:53:43.339Z,545.63
2022-07-29T07:54:43.302Z,528.75
2022-07-29T07:56:11.718Z,500.63
2022-07-29T07:56:43.242Z,466.88
2022-07-29T07:57:43.175Z,444.38
2022-07-29T07:58:43.141Z,455.63
2022-07-29T07:59:43.096Z,500.63
2022-07-29T08:00:43.152Z,568.13
2022-07-29T08:01:55.142Z,635.63
2022-07-29T08:02:43.057Z,708.75
2022-07-29T08:03:42.938Z,765.00
2022-07-29T08:04:42.903Z,832.50
2022-07-29T08:05:42.864Z,900.00
2022-07-29T08:06:42.826Z,967.50
2022-07-29T08:07:42.780Z,1001.25
2022-07-29T08:08:42.807Z,995.63
2022-07-29T08:09:42.702Z,990.00
2022-07-29T08:10:42.664Z,995.63
2022-07-29T08:11:51.611Z,1018.13
2022-07-29T08:12:42.587Z,1057.50
2022-07-29T08:13:42.549Z,1119.38
2022-07-29T08:14:42.530Z,1203.75
2022-07-29T08:15:42.471Z,1265.63
2022-07-29T08:16:42.493Z,1344.38
2022-07-29T08:17:42.393Z,1411.88
2022-07-29T08:18:42.356Z,1479.38
2022-07-29T08:19:42.322Z,1524.38
2022-07-29T08:20:42.300Z,1535.63
2022-07-29T08:21:42.247Z,1546.88
2022-07-29T08:22:42.205Z,1451.25
2022-07-29T08:23:46.161Z,1372.50
2022-07-29T08:24:42.128Z,1378.13
2022-07-29T08:25:42.089Z,1423.13
2022-07-29T08:26:42.079Z,1473.75
2022-07-29T08:27:43.844Z,1777.50
2022-07-29T08:28:41.978Z,1676.25
2022-07-29T08:29:41.938Z,1878.75
2022-07-29T08:30:41.907Z,1867.50
2022-07-29T08:31:41.919Z,1963.13
2022-07-29T08:32:53.667Z,1743.75
2022-07-29T08:33:41.819Z,1833.75
2022-07-29T08:34:41.754Z,1816.88
2022-07-29T08:35:41.724Z,3082.50
2022-07-29T08:36:41.681Z,984.38
2022-07-29T08:37:41.649Z,866.25
2022-07-29T08:38:41.611Z,798.75
2022-07-29T08:39:44.970Z,753.75
2022-07-29T08:40:41.538Z,691.88
2022-07-29T08:41:44.621Z,652.50
2022-07-29T08:42:41.461Z,630.00
2022-07-29T08:43:41.430Z,607.50
2022-07-29T08:44:41.389Z,607.50
2022-07-29T08:45:41.420Z,613.13
2022-07-29T08:46:41.321Z,658.13
2022-07-29T08:47:41.282Z,708.75
2022-07-29T08:48:41.277Z,798.75
2022-07-29T08:49:41.210Z,888.75
2022-07-29T08:50:41.172Z,995.63
2022-07-29T08:51:48.570Z,1091.25
2022-07-29T08:52:41.100Z,1192.50
2022-07-29T08:53:41.064Z,1321.88
2022-07-29T08:54:41.031Z,1445.63
2022-07-29T08:55:40.986Z,1597.50
2022-07-29T08:56:40.982Z,1794.38
2022-07-29T08:57:43.392Z,2064.38
2022-07-29T08:58:40.882Z,2311.88
2022-07-29T08:59:40.841Z,1811.25
2022-07-29T09:00:40.867Z,1783.13
2022-07-29T09:01:42.494Z,1794.38
2022-07-29T09:02:40.754Z,1816.88
2022-07-29T09:03:40.728Z,1625.63
2022-07-29T09:04:40.659Z,1653.75
2022-07-29T09:05:43.802Z,1710.00
2022-07-29T09:06:40.591Z,1693.13
2022-07-29T09:07:40.559Z,2013.75
2022-07-29T09:08:40.544Z,2255.63
2022-07-29T09:09:40.484Z,2345.63
2022-07-29T09:10:40.445Z,2497.50
2022-07-29T09:11:40.418Z,1957.50
2022-07-29T09:12:40.374Z,1670.63
2022-07-29T09:13:40.340Z,1788.75
2022-07-29T09:14:40.320Z,2008.13
2022-07-29T09:15:40.265Z,4230.00
2022-07-29T09:16:52.670Z,4027.50
2022-07-29T09:17:40.226Z,1861.88
2022-07-29T09:18:40.157Z,1676.25
2022-07-29T09:19:45.391Z,3110.63
2022-07-29T09:20:40.088Z,1636.88
2022-07-29T09:21:40.054Z,1929.38
2022-07-29T09:22:42.011Z,3549.38
2022-07-29T09:23:39.985Z,4044.38
2022-07-29T09:24:39.948Z,4050.00
2022-07-29T09:25:39.917Z,2289.38
2022-07-29T09:26:39.881Z,2835.00
2022-07-29T09:27:39.844Z,2896.88
2022-07-29T09:28:39.822Z,2750.63
2022-07-29T09:29:39.778Z,3538.13
2022-07-29T09:30:39.743Z,2463.75
2022-07-29T09:31:39.799Z,2908.13
2022-07-29T09:32:39.675Z,2643.75
2022-07-29T09:33:39.637Z,3667.50
2022-07-29T09:34:39.622Z,3138.75
2022-07-29T09:35:39.573Z,4938.75
2022-07-29T09:36:39.544Z,3268.13
2022-07-29T09:37:39.508Z,3009.38
2022-07-29T09:38:39.478Z,2227.50
2022-07-29T09:39:39.480Z,1811.25
2022-07-29T09:40:39.410Z,1715.63
2022-07-29T09:41:39.380Z,4584.38
2022-07-29T09:42:39.341Z,3971.25
2022-07-29T09:43:39.310Z,3915.00
2022-07-29T09:44:39.273Z,4263.75
2022-07-29T09:45:39.430Z,4708.13
2022-07-29T09:46:39.297Z,5535.00
2022-07-29T09:47:39.171Z,5737.50
2022-07-29T09:48:39.209Z,5895.00
2022-07-29T09:49:39.110Z,5242.50
2022-07-29T09:50:39.086Z,4522.50
2022-07-29T09:51:39.488Z,4927.50
2022-07-29T09:52:39.035Z,5287.50
2022-07-29T09:53:38.985Z,5180.63
2022-07-29T09:54:38.955Z,5248.13
2022-07-29T09:55:38.921Z,5124.38
2022-07-29T09:56:38.892Z,4876.88
2022-07-29T09:57:38.872Z,5085.00
2022-07-29T09:58:38.829Z,5208.75
2022-07-29T09:59:50.595Z,5124.38
2022-07-29T10:00:38.811Z,4663.13
2022-07-29T10:01:38.752Z,4691.25
2022-07-29T10:02:38.740Z,5141.25
2022-07-29T10:03:38.706Z,5068.13
2022-07-29T10:04:38.661Z,4421.25
2022-07-29T10:05:38.631Z,4730.63
2022-07-29T10:06:38.600Z,4944.38
2022-07-29T10:07:38.569Z,5371.88
2022-07-29T10:08:38.564Z,3965.63
2022-07-29T10:09:38.523Z,4854.38
2022-07-29T10:10:38.493Z,3774.38
2022-07-29T10:11:49.243Z,2666.25
2022-07-29T10:12:38.434Z,3009.38
2022-07-29T10:13:38.406Z,5951.25
2022-07-29T10:14:38.412Z,5715.00
2022-07-29T10:15:38.361Z,2902.50
2022-07-29T10:16:38.401Z,4224.38
2022-07-29T10:17:38.298Z,4809.38
2022-07-29T10:18:38.265Z,3819.38
2022-07-29T10:19:38.243Z,3273.75
2022-07-29T10:20:38.238Z,4342.50
2022-07-29T10:21:38.184Z,4736.25
2022-07-29T10:22:52.295Z,4635.00
2022-07-29T10:23:46.001Z,3611.25
2022-07-29T10:24:38.102Z,3155.63
2022-07-29T10:25:38.116Z,2542.50
2022-07-29T10:26:38.065Z,2418.75
2022-07-29T10:27:38.040Z,2503.13
2022-07-29T10:28:37.995Z,2390.63
2022-07-29T10:29:37.968Z,2210.63
2022-07-29T10:30:37.938Z,2390.63
2022-07-29T10:31:37.983Z,2368.13
2022-07-29T10:32:37.886Z,1822.50
2022-07-29T10:33:37.869Z,1760.63
2022-07-29T10:34:37.829Z,2064.38
2022-07-29T10:35:37.801Z,2165.63
2022-07-29T10:36:37.770Z,2126.25
2022-07-29T10:37:37.751Z,2030.63
2022-07-29T10:38:38.542Z,2013.75
2022-07-29T10:39:41.847Z,2070.00
2022-07-29T10:40:37.653Z,2266.88
2022-07-29T10:41:43.818Z,2548.13
2022-07-29T10:42:37.594Z,2565.00
2022-07-29T10:43:37.570Z,2683.13
2022-07-29T10:44:37.575Z,2868.75
2022-07-29T10:45:37.509Z,2880.00
2022-07-29T10:46:37.497Z,3487.50
2022-07-29T10:47:37.473Z,3768.75
2022-07-29T10:48:37.451Z,3656.25
2022-07-29T10:49:37.454Z,3015.00
2022-07-29T10:50:37.353Z,2587.50
2022-07-29T10:51:37.325Z,2475.00
2022-07-29T10:52:38.091Z,2430.00
2022-07-29T10:53:37.273Z,2373.75
2022-07-29T10:54:37.317Z,2385.00
2022-07-29T10:55:37.225Z,2345.63
2022-07-29T10:56:37.178Z,2238.75
2022-07-29T10:57:53.775Z,2143.13
2022-07-29T10:58:37.117Z,2070.00
2022-07-29T10:59:37.087Z,2058.75
2022-07-29T11:00:37.056Z,2081.25
2022-07-29T11:01:39.213Z,2103.75
2022-07-29T11:02:42.419Z,2103.75
2022-07-29T11:03:36.996Z,2019.38
2022-07-29T11:04:36.933Z,1935.00
2022-07-29T11:05:40.868Z,1901.25
2022-07-29T11:06:36.872Z,1895.63
2022-07-29T11:07:46.182Z,1906.88
2022-07-29T11:08:36.808Z,1929.38
2022-07-29T11:09:38.459Z,1946.25
2022-07-29T11:10:36.746Z,2002.50
2022-07-29T11:11:36.710Z,2160.00
2022-07-29T11:12:36.681Z,2266.88
2022-07-29T11:13:41.073Z,2323.13
2022-07-29T11:14:36.618Z,2227.50
2022-07-29T11:15:36.606Z,2126.25
2022-07-29T11:16:36.559Z,1996.88
2022-07-29T11:17:47.048Z,1884.38
2022-07-29T11:18:36.491Z,1811.25
2022-07-29T11:19:36.487Z,1738.13
2022-07-29T11:20:36.514Z,1698.75
2022-07-29T11:21:53.483Z,1687.50
2022-07-29T11:22:36.367Z,1715.63
2022-07-29T11:23:36.335Z,1805.63
2022-07-29T11:24:36.305Z,1822.50
2022-07-29T11:25:50.100Z,1895.63
2022-07-29T11:26:36.238Z,1918.13
2022-07-29T11:27:36.229Z,1850.63
2022-07-29T11:28:36.172Z,1788.75
2022-07-29T11:29:39.962Z,1755.00
2022-07-29T11:30:36.113Z,1687.50
2022-07-29T11:31:36.095Z,1603.13
2022-07-29T11:32:36.047Z,1518.75
2022-07-29T11:33:37.598Z,1462.50
2022-07-29T11:34:35.982Z,1406.25
2022-07-29T11:35:38.452Z,1372.50
2022-07-29T11:36:35.921Z,1338.75
2022-07-29T11:37:42.377Z,1321.88
2022-07-29T11:38:35.850Z,1288.13
2022-07-29T11:39:36.455Z,1260.00
2022-07-29T11:40:35.797Z,1237.50
2022-07-29T11:41:35.755Z,1226.25
2022-07-29T11:42:35.725Z,1231.88
2022-07-29T11:43:35.693Z,1243.13
2022-07-29T11:44:35.662Z,1271.25
2022-07-29T11:45:43.824Z,1316.25
2022-07-29T11:46:35.596Z,1366.88
2022-07-29T11:47:38.250Z,1417.50
2022-07-29T11:48:35.527Z,1456.88
2022-07-29T11:49:35.533Z,1479.38
2022-07-29T11:50:35.466Z,1501.88
2022-07-29T11:51:35.466Z,1507.50
2022-07-29T11:52:35.405Z,1524.38
2022-07-29T11:53:35.366Z,1569.38
2022-07-29T11:54:57.030Z,1608.75
2022-07-29T11:55:35.298Z,1659.38
2022-07-29T11:56:35.269Z,1687.50
2022-07-29T11:57:36.222Z,1704.38
2022-07-29T11:58:35.204Z,1715.63
2022-07-29T11:59:35.196Z,1710.00
2022-07-29T12:00:35.137Z,1687.50
2022-07-29T12:01:35.106Z,1631.25
2022-07-29T12:02:37.413Z,1580.63
2022-07-29T12:03:36.646Z,1530.00
2022-07-29T12:04:35.037Z,1462.50
2022-07-29T12:06:34.941Z,1321.88
2022-07-29T12:07:03.844Z,1389.38
2022-07-29T12:07:35.407Z,1243.13
2022-07-29T12:08:34.885Z,1175.63
2022-07-29T12:09:40.443Z,1147.50
2022-07-29T12:10:34.835Z,1158.75
2022-07-29T12:11:34.773Z,1164.38
2022-07-29T12:12:34.751Z,1181.25
2022-07-29T12:13:37.461Z,1203.75
2022-07-29T12:14:34.678Z,1231.88
2022-07-29T12:15:46.922Z,1288.13
2022-07-29T12:16:34.629Z,1350.00
2022-07-29T12:17:34.574Z,1400.63
2022-07-29T12:18:34.541Z,1440.00
2022-07-29T12:19:34.507Z,1428.75
2022-07-29T12:20:34.473Z,1411.88
2022-07-29T12:21:34.472Z,1383.75
2022-07-29T12:22:34.406Z,1355.63
2022-07-29T12:23:35.434Z,1344.38
2022-07-29T12:24:34.341Z,1310.63
2022-07-29T12:25:34.741Z,1276.88
2022-07-29T12:26:34.331Z,1231.88
2022-07-29T12:27:34.262Z,1164.38
2022-07-29T12:28:34.205Z,1096.88
2022-07-29T12:29:35.550Z,1023.75
2022-07-29T12:30:34.141Z,961.88
2022-07-29T12:31:43.493Z,905.63
2022-07-29T12:32:34.138Z,866.25
2022-07-29T12:33:34.068Z,826.88
2022-07-29T12:34:34.013Z,815.63
2022-07-29T12:35:33.984Z,821.25
2022-07-29T12:36:33.954Z,821.25
2022-07-29T12:37:41.008Z,815.63
2022-07-29T12:38:33.867Z,810.00
2022-07-29T12:39:33.874Z,798.75
2022-07-29T12:40:33.804Z,804.38